CYFT

Makkovik Airport

Makkovik, Canada
METAR CYFT 171500Z 22014KT 15SM FEW025 BKN240 M01/M09 A2958 RMK SC2CI4 SLP024
Observed Flight Rules
Dec-17 @ 15:00 UTC (12 minutes ago) Visual Flight Rules
Wind Visibility Clouds
220° at 14 knots 15 miles
  • Few at 2,500' AGL
  • Broken at 24,000' AGL
Temperatures Readings
Current -1°C / 30°F
Dewpoint -9°C / 16°F
Humidity 55%
Altimeter 29.58" Hg
Pressure 1002.4 hPa
Elevation 71
METAR CYFT 171500Z 22014KT 15SM FEW025 BKN240 M01/M09 A2958 RMK SC2CI4 SLP024
Observed Flight Rules
Dec-17 @ 15:00 UTC
(12 minutes ago)
VFR
Wind Visibility
220° at 14 knots 15 miles
Clouds
  • Few at 2,500' AGL
  • Broken at 24,000' AGL
Temperature Dewpoint
-1°C / 30°F -9°C / 16°F
Humidity Altimeter Pressure
55% 29.58" Hg 1002.4 hPa